createdAt,value
2018-05-23T00:00:22.049Z,16.60
2018-05-23T00:02:50.457Z,16.60
2018-05-23T00:05:18.068Z,16.60
2018-05-23T00:07:46.439Z,16.60
2018-05-23T00:10:14.065Z,16.60
2018-05-23T00:12:41.715Z,16.60
2018-05-23T00:15:09.303Z,16.60
2018-05-23T00:17:36.922Z,16.60
2018-05-23T00:20:04.518Z,16.50
2018-05-23T00:22:33.222Z,16.50
2018-05-23T00:25:00.834Z,16.50
2018-05-23T00:27:28.467Z,16.50
2018-05-23T00:29:56.087Z,16.50
2018-05-23T00:32:24.480Z,16.40
2018-05-23T00:34:52.974Z,16.40
2018-05-23T00:37:20.569Z,16.40
2018-05-23T00:39:48.171Z,16.50
2018-05-23T00:42:16.560Z,16.50
2018-05-23T00:44:44.183Z,16.50
2018-05-23T00:47:11.807Z,16.50
2018-05-23T00:49:39.429Z,16.50
2018-05-23T00:52:07.022Z,16.50
2018-05-23T00:54:35.383Z,16.60
2018-05-23T00:57:03.025Z,16.50
2018-05-23T00:59:31.030Z,16.50
2018-05-23T01:01:58.649Z,16.50
2018-05-23T01:04:26.968Z,16.50
2018-05-23T01:06:54.568Z,16.50
2018-05-23T01:09:22.273Z,16.50
2018-05-23T01:11:49.958Z,16.40
2018-05-23T01:14:17.589Z,16.50
2018-05-23T01:16:45.345Z,16.50
2018-05-23T01:19:12.989Z,16.50
2018-05-23T01:21:40.697Z,16.60
2018-05-23T01:24:08.340Z,16.60
2018-05-23T01:26:36.780Z,16.70
2018-05-23T01:29:04.544Z,16.70
2018-05-23T01:31:32.181Z,16.70
2018-05-23T01:33:59.829Z,16.70
2018-05-23T01:36:27.536Z,16.70
2018-05-23T01:38:55.183Z,16.70
2018-05-23T01:41:22.880Z,16.70
2018-05-23T01:43:50.497Z,16.60
2018-05-23T01:46:18.116Z,16.60
2018-05-23T01:48:57.530Z,16.50
2018-05-23T01:51:25.170Z,16.50
2018-05-23T01:53:52.821Z,16.50
2018-05-23T01:56:20.432Z,16.50
2018-05-23T01:58:48.073Z,16.40
2018-05-23T02:01:15.732Z,16.40
2018-05-23T02:03:43.418Z,16.30
2018-05-23T02:06:11.053Z,16.20
2018-05-23T02:08:38.727Z,16.20
2018-05-23T02:11:06.411Z,16.20
2018-05-23T02:13:34.997Z,16.20
2018-05-23T02:16:02.619Z,16.20
2018-05-23T02:18:30.332Z,16.20
2018-05-23T02:20:57.989Z,16.20
2018-05-23T02:23:26.927Z,16.20
2018-05-23T02:25:54.695Z,16.20
2018-05-23T02:28:22.431Z,16.20
2018-05-23T02:30:50.174Z,16.20
2018-05-23T02:33:17.807Z,16.10
2018-05-23T02:35:45.631Z,16.10
2018-05-23T02:38:13.304Z,16.10
2018-05-23T02:40:41.006Z,16.10
2018-05-23T02:43:08.692Z,16.20
2018-05-23T02:45:37.537Z,16.30
2018-05-23T02:48:07.281Z,16.30
2018-05-23T02:50:34.952Z,16.20
2018-05-23T02:53:03.662Z,16.30
2018-05-23T02:55:31.368Z,16.20
2018-05-23T02:57:59.038Z,16.30
2018-05-23T03:00:26.752Z,16.20
2018-05-23T03:02:54.453Z,16.20
2018-05-23T03:05:22.189Z,16.10
2018-05-23T03:07:49.821Z,16.00
2018-05-23T03:10:17.441Z,15.90
2018-05-23T03:12:45.102Z,15.80
2018-05-23T03:15:12.795Z,15.70
2018-05-23T03:17:40.421Z,15.70
2018-05-23T03:20:08.088Z,15.60
2018-05-23T03:22:35.737Z,15.60
2018-05-23T03:25:03.484Z,15.70
2018-05-23T03:27:31.276Z,15.60
2018-05-23T03:29:59.738Z,15.70
2018-05-23T03:32:27.449Z,15.60
2018-05-23T03:34:55.947Z,15.80
2018-05-23T03:37:23.571Z,15.80
2018-05-23T03:39:51.204Z,15.90
2018-05-23T03:42:18.827Z,16.00
2018-05-23T03:44:46.460Z,16.00
2018-05-23T03:47:14.077Z,16.10
2018-05-23T03:49:41.799Z,16.10
2018-05-23T03:52:09.491Z,16.20
2018-05-23T03:54:37.174Z,16.20
2018-05-23T03:57:05.136Z,16.20
2018-05-23T03:59:45.333Z,16.30
2018-05-23T04:02:24.751Z,16.30
2018-05-23T04:05:04.208Z,16.40
2018-05-23T04:07:37.840Z,16.30
2018-05-23T04:10:05.504Z,16.40
2018-05-23T04:12:33.214Z,16.40
2018-05-23T04:15:01.567Z,16.40
2018-05-23T04:17:29.805Z,16.40
2018-05-23T04:19:57.455Z,16.40
2018-05-23T04:22:25.799Z,16.40
2018-05-23T04:24:53.449Z,16.40
2018-05-23T04:27:21.094Z,16.50
2018-05-23T04:29:48.721Z,16.40
2018-05-23T04:32:17.081Z,16.50
2018-05-23T04:34:44.684Z,16.50
2018-05-23T04:37:13.038Z,16.50
2018-05-23T04:39:40.676Z,16.50
2018-05-23T04:42:08.264Z,16.50
2018-05-23T04:44:35.843Z,16.50
2018-05-23T04:47:03.451Z,16.50
2018-05-23T04:49:32.308Z,16.60
2018-05-23T04:51:59.905Z,16.60
2018-05-23T04:54:27.514Z,16.60
2018-05-23T04:56:55.135Z,16.60
2018-05-23T04:59:22.783Z,16.70
2018-05-23T05:01:51.226Z,16.70
2018-05-23T05:04:18.900Z,16.70
2018-05-23T05:06:46.497Z,16.70
2018-05-23T05:09:14.137Z,16.70
2018-05-23T05:11:42.036Z,16.70
2018-05-23T05:14:10.395Z,16.80
2018-05-23T05:16:38.010Z,16.70
2018-05-23T05:19:07.474Z,16.80
2018-05-23T05:21:38.582Z,16.90
2018-05-23T05:24:06.286Z,16.80
2018-05-23T05:26:33.954Z,16.90
2018-05-23T05:29:01.556Z,16.90
2018-05-23T05:31:29.992Z,16.70
2018-05-23T05:33:58.347Z,16.70
2018-05-23T05:36:25.939Z,16.70
2018-05-23T05:38:53.643Z,16.70
2018-05-23T05:41:21.173Z,16.70
2018-05-23T05:43:48.783Z,16.70
2018-05-23T05:46:17.195Z,16.70
2018-05-23T05:48:44.808Z,16.70
2018-05-23T05:51:12.447Z,16.70
2018-05-23T05:53:40.112Z,16.80
2018-05-23T05:56:08.446Z,16.90
2018-05-23T05:58:36.804Z,16.90
2018-05-23T06:01:04.396Z,16.90
2018-05-23T06:03:32.437Z,16.90
2018-05-23T06:06:00.074Z,16.90
2018-05-23T06:08:27.684Z,16.90
2018-05-23T06:10:55.358Z,16.90
2018-05-23T06:13:23.778Z,17.00
2018-05-23T06:15:51.506Z,17.00
2018-05-23T06:18:19.345Z,17.10
2018-05-23T06:20:46.983Z,17.10
2018-05-23T06:23:14.594Z,17.10
2018-05-23T06:25:42.218Z,17.20
2018-05-23T06:28:09.841Z,17.20
2018-05-23T06:30:38.188Z,17.30
2018-05-23T06:33:05.805Z,17.30
2018-05-23T06:35:33.448Z,17.40
2018-05-23T06:38:01.815Z,17.50
2018-05-23T06:40:29.412Z,17.50
2018-05-23T06:42:57.768Z,17.50
2018-05-23T06:45:25.413Z,17.50
2018-05-23T06:47:53.005Z,17.60
2018-05-23T06:50:20.626Z,17.60
2018-05-23T06:52:48.355Z,17.60
2018-05-23T06:55:16.002Z,17.60
2018-05-23T06:57:43.622Z,17.60
2018-05-23T07:00:11.276Z,17.80
2018-05-23T07:02:38.885Z,17.80
2018-05-23T07:05:06.497Z,17.90
2018-05-23T07:07:34.829Z,18.00
2018-05-23T07:10:02.543Z,17.90
2018-05-23T07:12:30.177Z,18.00
2018-05-23T07:14:57.840Z,17.90
2018-05-23T07:17:25.508Z,17.90
2018-05-23T07:19:53.136Z,17.80
2018-05-23T07:22:21.309Z,17.90
2018-05-23T07:24:48.985Z,18.00
2018-05-23T07:27:16.643Z,18.10
2018-05-23T07:29:44.300Z,18.10
2018-05-23T07:32:12.567Z,18.10
2018-05-23T07:34:40.201Z,18.10
2018-05-23T07:37:07.855Z,18.10
2018-05-23T07:39:35.488Z,18.10
2018-05-23T07:42:03.193Z,18.10
2018-05-23T07:44:30.847Z,18.20
2018-05-23T07:46:58.971Z,18.20
2018-05-23T07:49:27.375Z,18.40
2018-05-23T07:51:55.013Z,18.40
2018-05-23T07:54:23.447Z,18.50
2018-05-23T07:56:51.091Z,18.50
2018-05-23T07:59:18.757Z,18.50
2018-05-23T08:01:46.529Z,18.60
2018-05-23T08:04:14.209Z,18.60
2018-05-23T08:06:41.848Z,18.60
2018-05-23T08:09:09.615Z,18.80
2018-05-23T08:11:37.354Z,18.90
2018-05-23T08:14:04.990Z,19.00
2018-05-23T08:16:32.699Z,19.00
2018-05-23T08:19:01.140Z,19.10
2018-05-23T08:21:28.824Z,19.10
2018-05-23T08:23:57.128Z,19.20
2018-05-23T08:26:25.697Z,19.40
2018-05-23T08:28:53.396Z,19.30
2018-05-23T08:31:21.871Z,19.60
2018-05-23T08:33:49.506Z,19.50
2018-05-23T08:36:17.272Z,19.80
2018-05-23T08:38:44.883Z,20.00
2018-05-23T08:41:13.299Z,20.00
2018-05-23T08:43:40.955Z,20.00
2018-05-23T08:46:08.808Z,20.00
2018-05-23T08:48:36.405Z,20.10
2018-05-23T08:51:04.141Z,20.20
2018-05-23T08:53:31.919Z,20.20
2018-05-23T08:55:59.635Z,20.10
2018-05-23T08:58:27.296Z,20.00
2018-05-23T09:00:55.098Z,20.10
2018-05-23T09:03:23.648Z,20.20
2018-05-23T09:05:51.312Z,20.30
2018-05-23T09:08:18.968Z,20.30
2018-05-23T09:10:46.646Z,20.20
2018-05-23T09:13:14.368Z,20.10
2018-05-23T09:15:42.168Z,19.90
2018-05-23T09:18:09.868Z,19.90
2018-05-23T09:20:38.005Z,20.00
2018-05-23T09:23:05.686Z,19.90
2018-05-23T09:25:33.421Z,20.00
2018-05-23T09:28:01.217Z,19.90
2018-05-23T09:30:28.991Z,20.00
2018-05-23T09:32:56.673Z,20.10
2018-05-23T09:35:24.511Z,20.20
2018-05-23T09:37:52.265Z,20.50
2018-05-23T09:40:21.536Z,21.10
2018-05-23T09:42:49.330Z,21.00
2018-05-23T09:45:17.032Z,21.00
2018-05-23T09:47:44.701Z,20.80
2018-05-23T09:50:12.497Z,20.60
2018-05-23T09:52:40.370Z,20.70
2018-05-23T09:55:08.167Z,21.00
2018-05-23T09:57:36.654Z,21.10
2018-05-23T10:00:05.145Z,21.30
2018-05-23T10:02:32.919Z,21.20
2018-05-23T10:05:00.838Z,21.30
2018-05-23T10:07:28.530Z,21.30
2018-05-23T10:09:56.302Z,21.40
2018-05-23T10:12:24.007Z,21.60
2018-05-23T10:14:51.770Z,21.40
2018-05-23T10:17:19.529Z,21.30
2018-05-23T10:19:47.312Z,21.40
2018-05-23T10:22:15.861Z,21.40
2018-05-23T10:24:43.635Z,21.30
2018-05-23T10:27:11.422Z,21.20
2018-05-23T10:29:39.124Z,21.00
2018-05-23T10:32:06.941Z,20.90
2018-05-23T10:34:34.889Z,20.90
2018-05-23T10:37:02.833Z,20.90
2018-05-23T10:39:30.706Z,20.90
2018-05-23T10:41:58.491Z,20.80
2018-05-23T10:44:26.213Z,20.70
2018-05-23T10:46:54.594Z,20.50
2018-05-23T10:49:22.291Z,20.40
2018-05-23T10:51:49.987Z,20.10
2018-05-23T10:54:17.669Z,19.90
2018-05-23T10:56:45.361Z,19.80
2018-05-23T10:59:13.053Z,19.70
2018-05-23T11:01:40.725Z,19.50
2018-05-23T11:04:08.498Z,19.40
2018-05-23T11:06:36.086Z,19.30
2018-05-23T11:09:03.834Z,19.30
2018-05-23T11:11:32.828Z,19.10
2018-05-23T11:14:00.550Z,19.10
2018-05-23T11:16:28.265Z,19.10
2018-05-23T11:18:55.939Z,19.20
2018-05-23T11:21:23.550Z,19.20
2018-05-23T11:23:51.236Z,19.20
2018-05-23T11:26:18.930Z,19.10
2018-05-23T11:28:46.622Z,19.10
2018-05-23T11:31:14.452Z,19.10
2018-05-23T11:33:42.186Z,19.30
2018-05-23T11:36:10.711Z,19.40
2018-05-23T11:38:38.343Z,19.50
2018-05-23T11:41:06.415Z,19.60
2018-05-23T11:43:34.750Z,19.70
2018-05-23T11:46:02.437Z,19.80
2018-05-23T11:48:30.123Z,19.90
2018-05-23T11:50:57.785Z,20.20
2018-05-23T11:53:25.584Z,20.40
2018-05-23T11:55:53.205Z,20.50
2018-05-23T11:58:20.957Z,20.80
2018-05-23T12:00:48.647Z,21.20
2018-05-23T12:03:16.338Z,21.40
2018-05-23T12:05:43.961Z,21.80
2018-05-23T12:08:11.592Z,22.10
2018-05-23T12:10:39.514Z,22.60
2018-05-23T12:13:07.148Z,22.80
2018-05-23T12:15:34.837Z,22.80
2018-05-23T12:18:02.605Z,22.90
2018-05-23T12:20:30.297Z,22.90
2018-05-23T12:22:57.965Z,23.00
2018-05-23T12:25:25.623Z,23.40
2018-05-23T12:27:53.383Z,23.60
2018-05-23T12:30:21.043Z,24.00
2018-05-23T12:32:48.674Z,24.40
2018-05-23T12:35:16.315Z,24.40
2018-05-23T12:37:46.181Z,24.60
2018-05-23T12:40:14.629Z,25.00
2018-05-23T12:42:42.240Z,25.00
2018-05-23T12:45:10.773Z,25.20
2018-05-23T12:47:38.454Z,25.20
2018-05-23T12:50:06.878Z,25.50
2018-05-23T12:52:34.536Z,25.50
2018-05-23T12:55:02.157Z,25.60
2018-05-23T12:57:29.860Z,25.80
2018-05-23T12:59:57.586Z,25.90
2018-05-23T13:02:25.703Z,26.00
2018-05-23T13:04:53.384Z,26.10
2018-05-23T13:07:21.085Z,26.20
2018-05-23T13:09:48.798Z,26.50
2018-05-23T13:12:17.273Z,26.90
2018-05-23T13:14:44.894Z,26.90
2018-05-23T13:17:12.553Z,26.80
2018-05-23T13:19:40.306Z,27.00
2018-05-23T13:22:08.034Z,26.90
2018-05-23T13:24:36.576Z,26.90
2018-05-23T13:27:04.268Z,26.80
2018-05-23T13:29:31.886Z,27.20
2018-05-23T13:32:00.242Z,27.50
2018-05-23T13:34:28.645Z,27.30
2018-05-23T13:36:57.052Z,27.80
2018-05-23T13:39:24.694Z,27.80
2018-05-23T13:41:53.053Z,27.50
2018-05-23T13:44:20.704Z,27.50
2018-05-23T13:46:48.360Z,27.50
2018-05-23T13:49:16.060Z,27.10
2018-05-23T13:51:43.781Z,27.00
2018-05-23T13:54:12.371Z,27.10
2018-05-23T13:56:40.034Z,26.80
2018-05-23T13:59:07.669Z,26.70
2018-05-23T14:01:35.261Z,26.60
2018-05-23T14:04:02.891Z,26.80
2018-05-23T14:06:31.317Z,26.90
2018-05-23T14:08:58.909Z,26.90
2018-05-23T14:11:26.741Z,26.90
2018-05-23T14:13:54.503Z,26.80
2018-05-23T14:16:22.304Z,26.50
2018-05-23T14:19:09.238Z,26.30
2018-05-23T14:21:36.974Z,26.10
2018-05-23T14:24:05.482Z,26.20
2018-05-23T14:26:33.312Z,26.30
2018-05-23T14:29:00.923Z,26.50
2018-05-23T14:31:29.313Z,26.50
2018-05-23T14:33:57.023Z,26.60
2018-05-23T14:36:24.668Z,26.70
2018-05-23T14:38:52.309Z,26.60
2018-05-23T14:41:20.773Z,26.60
2018-05-23T14:46:50.385Z,27.10
2018-05-23T14:49:18.029Z,27.10
2018-05-23T14:51:45.673Z,27.00
2018-05-23T14:54:13.272Z,27.10
2018-05-23T14:56:41.006Z,27.20
2018-05-23T14:59:09.396Z,27.20
2018-05-23T15:01:37.011Z,27.20
2018-05-23T15:04:04.636Z,27.20
2018-05-23T15:06:32.312Z,27.10
2018-05-23T15:08:59.979Z,27.40
2018-05-23T15:11:27.623Z,27.40
2018-05-23T15:13:55.263Z,27.30
2018-05-23T15:16:22.903Z,27.10
2018-05-23T15:18:50.674Z,27.10
2018-05-23T15:21:18.435Z,27.20
2018-05-23T15:23:46.113Z,27.20
2018-05-23T15:26:13.825Z,27.10
2018-05-23T15:28:41.462Z,27.10
2018-05-23T15:31:09.847Z,27.40
2018-05-23T15:33:38.300Z,27.60
2018-05-23T15:36:05.941Z,27.50
2018-05-23T15:38:33.669Z,27.70
2018-05-23T15:41:02.041Z,27.70
2018-05-23T15:43:29.679Z,27.70
2018-05-23T15:45:57.368Z,27.80
2018-05-23T15:48:25.034Z,27.80
2018-05-23T15:50:52.897Z,28.20
2018-05-23T15:53:21.298Z,28.60
2018-05-23T15:55:48.915Z,28.50
2018-05-23T15:58:16.616Z,28.70
2018-05-23T16:00:44.346Z,28.60
2018-05-23T16:03:11.985Z,28.30
2018-05-23T16:05:40.359Z,27.70
2018-05-23T16:08:08.798Z,27.60
2018-05-23T16:10:36.426Z,27.50
2018-05-23T16:13:04.067Z,27.20
2018-05-23T16:15:31.759Z,26.90
2018-05-23T16:17:59.453Z,26.80
2018-05-23T16:20:27.301Z,26.50
2018-05-23T16:22:54.947Z,26.30
2018-05-23T16:25:23.405Z,26.20
2018-05-23T16:27:51.082Z,26.20
2018-05-23T16:30:18.868Z,26.00
2018-05-23T16:32:47.318Z,25.80
2018-05-23T16:35:15.056Z,25.80
2018-05-23T16:37:42.718Z,25.70
2018-05-23T16:40:10.433Z,25.60
2018-05-23T16:42:38.302Z,25.50
2018-05-23T16:45:06.812Z,25.40
2018-05-23T16:47:37.344Z,25.30
2018-05-23T16:50:05.011Z,25.30
2018-05-23T16:52:33.435Z,25.30
2018-05-23T16:55:01.113Z,25.20
2018-05-23T16:57:28.765Z,25.30
2018-05-23T16:59:57.186Z,25.30
2018-05-23T17:02:25.657Z,25.30
2018-05-23T17:04:53.382Z,25.30
2018-05-23T17:07:21.078Z,25.30
2018-05-23T17:09:48.667Z,25.20
2018-05-23T17:12:16.337Z,25.10
2018-05-23T17:14:44.751Z,25.10
2018-05-23T17:17:12.356Z,25.00
2018-05-23T17:19:39.982Z,25.00
2018-05-23T17:22:07.726Z,24.90
2018-05-23T17:24:37.120Z,24.90
2018-05-23T17:27:04.816Z,24.80
2018-05-23T17:29:32.461Z,24.70
2018-05-23T17:32:00.071Z,24.70
2018-05-23T17:34:27.749Z,24.70
2018-05-23T17:36:55.434Z,24.60
2018-05-23T17:39:23.085Z,24.50
2018-05-23T17:41:50.769Z,24.40
2018-05-23T17:44:18.533Z,24.40
2018-05-23T17:46:46.172Z,24.30
2018-05-23T17:49:14.645Z,24.30
2018-05-23T17:51:42.308Z,24.30
2018-05-23T17:54:10.667Z,24.40
2018-05-23T17:56:38.387Z,24.40
2018-05-23T17:59:07.551Z,24.30
2018-05-23T18:01:36.056Z,24.40
2018-05-23T18:04:03.965Z,24.40
2018-05-23T18:06:31.631Z,24.40
2018-05-23T18:09:12.960Z,24.40
2018-05-23T18:11:41.336Z,24.40
2018-05-23T18:14:17.476Z,24.30
2018-05-23T18:16:45.137Z,24.30
2018-05-23T18:19:12.707Z,24.20
2018-05-23T18:21:45.593Z,24.00
2018-05-23T18:24:13.229Z,24.00
2018-05-23T18:26:40.835Z,23.90
2018-05-23T18:29:08.461Z,23.80
2018-05-23T18:31:36.061Z,23.80
2018-05-23T18:34:03.670Z,23.70
2018-05-23T18:36:32.091Z,23.60
2018-05-23T18:39:00.601Z,23.60
2018-05-23T18:41:28.234Z,23.50
2018-05-23T18:43:56.702Z,23.50
2018-05-23T18:46:24.345Z,23.50
2018-05-23T18:48:51.970Z,23.40
2018-05-23T18:51:19.592Z,23.40
2018-05-23T18:53:48.082Z,23.30
2018-05-23T18:56:15.714Z,23.30
2018-05-23T18:58:44.101Z,23.10
2018-05-23T19:01:12.603Z,23.00
2018-05-23T19:03:40.243Z,23.00
2018-05-23T19:06:08.655Z,22.90
2018-05-23T19:08:36.290Z,22.80
2018-05-23T19:11:04.697Z,22.70
2018-05-23T19:13:32.334Z,22.70
2018-05-23T19:15:59.993Z,22.70
2018-05-23T19:18:27.688Z,22.60
2018-05-23T19:20:55.358Z,22.60
2018-05-23T19:23:23.784Z,22.50
2018-05-23T19:25:51.459Z,22.50
2018-05-23T19:28:19.073Z,22.30
2018-05-23T19:30:47.448Z,22.20
2018-05-23T19:33:15.969Z,22.10
2018-05-23T19:35:43.609Z,22.10
2018-05-23T19:38:12.019Z,21.90
2018-05-23T19:40:39.632Z,21.90
2018-05-23T19:43:07.238Z,21.70
2018-05-23T19:45:34.984Z,21.60
2018-05-23T19:48:03.446Z,21.40
2018-05-23T19:53:08.282Z,21.30
2018-05-23T19:55:35.933Z,21.20
2018-05-23T19:58:03.580Z,21.10
2018-05-23T20:00:31.233Z,21.00
2018-05-23T20:02:58.936Z,21.00
2018-05-23T20:05:27.675Z,21.00
2018-05-23T20:07:56.595Z,20.90
2018-05-23T20:10:25.582Z,20.90
2018-05-23T20:12:53.267Z,20.80
2018-05-23T20:15:20.914Z,20.70
2018-05-23T20:17:48.536Z,20.70
2018-05-23T20:20:16.120Z,20.70
2018-05-23T20:22:43.719Z,20.60
2018-05-23T20:25:12.142Z,20.50
2018-05-23T20:27:39.736Z,20.50
2018-05-23T20:30:07.372Z,20.50
2018-05-23T20:32:35.019Z,20.40
2018-05-23T20:35:02.679Z,20.40
2018-05-23T20:37:30.277Z,20.40
2018-05-23T20:40:07.373Z,20.30
2018-05-23T20:42:35.019Z,20.30
2018-05-23T20:45:02.641Z,20.20
2018-05-23T20:47:31.058Z,20.20
2018-05-23T20:49:58.801Z,20.10
2018-05-23T20:52:26.614Z,20.10
2018-05-23T20:54:54.960Z,20.10
2018-05-23T20:57:22.568Z,20.10
2018-05-23T20:59:53.256Z,20.00
2018-05-23T21:02:20.855Z,20.00
2018-05-23T21:04:48.696Z,20.00
2018-05-23T21:07:16.308Z,20.00
2018-05-23T21:09:43.887Z,20.00
2018-05-23T21:12:11.483Z,19.90
2018-05-23T21:14:39.103Z,19.90
2018-05-23T21:17:06.679Z,19.90
2018-05-23T21:19:34.331Z,19.80
2018-05-23T21:22:02.031Z,19.80
2018-05-23T21:24:30.893Z,19.80
2018-05-23T21:26:58.528Z,19.70
2018-05-23T21:29:26.329Z,19.70
2018-05-23T21:31:53.955Z,19.70
2018-05-23T21:34:21.636Z,19.60
2018-05-23T21:36:49.285Z,19.60
2018-05-23T21:39:16.881Z,19.50
2018-05-23T21:41:44.514Z,19.50
2018-05-23T21:44:12.163Z,19.50
2018-05-23T21:46:40.532Z,19.40
2018-05-23T21:49:08.189Z,19.40
2018-05-23T21:51:35.842Z,19.40
2018-05-23T21:54:03.439Z,19.40
2018-05-23T21:56:31.796Z,19.30
2018-05-23T21:58:59.440Z,19.30
2018-05-23T22:01:27.108Z,19.30
2018-05-23T22:03:54.713Z,19.30
2018-05-23T22:06:22.347Z,19.20
2018-05-23T22:08:49.957Z,19.20
2018-05-23T22:11:17.579Z,19.10
2018-05-23T22:13:45.177Z,19.00
2018-05-23T22:16:13.545Z,19.00
2018-05-23T22:18:42.639Z,19.00
2018-05-23T22:21:10.295Z,18.90
2018-05-23T22:23:37.985Z,18.90
2018-05-23T22:26:06.170Z,18.90
2018-05-23T22:28:34.556Z,18.80
2018-05-23T22:31:02.200Z,18.80
2018-05-23T22:33:29.790Z,18.80
2018-05-23T22:35:58.248Z,18.70
2018-05-23T22:38:27.878Z,18.70
2018-05-23T22:40:55.536Z,18.70
2018-05-23T22:43:23.125Z,18.70
2018-05-23T22:45:50.766Z,18.60
2018-05-23T22:48:18.419Z,18.50
2018-05-23T22:50:46.148Z,18.50
2018-05-23T22:53:13.778Z,18.50
2018-05-23T22:55:41.436Z,18.50
2018-05-23T22:58:09.115Z,18.50
2018-05-23T23:00:37.463Z,18.40
2018-05-23T23:03:05.114Z,18.40
2018-05-23T23:05:32.807Z,18.40
2018-05-23T23:08:00.464Z,18.40
2018-05-23T23:10:28.058Z,18.40
2018-05-23T23:12:56.436Z,18.30
2018-05-23T23:15:24.098Z,18.30
2018-05-23T23:17:51.667Z,18.30
2018-05-23T23:20:19.281Z,18.20
2018-05-23T23:22:46.902Z,18.20
2018-05-23T23:25:14.492Z,18.20
2018-05-23T23:27:42.863Z,18.20
2018-05-23T23:30:11.260Z,18.20
2018-05-23T23:32:38.863Z,18.10
2018-05-23T23:35:06.469Z,18.20
2018-05-23T23:37:34.050Z,18.10
2018-05-23T23:40:02.407Z,18.10
2018-05-23T23:42:30.015Z,18.10
2018-05-23T23:44:58.059Z,18.10
2018-05-23T23:47:25.674Z,18.10
2018-05-23T23:49:53.883Z,18.00
2018-05-23T23:52:21.463Z,18.00
2018-05-23T23:54:49.831Z,18.00
2018-05-23T23:57:17.439Z,18.00
2018-05-23T23:59:52.946Z,18.00
